This is the latest recevied weather packets stored in our database for station/object SP2WPY-13. If no packets are shown the sender has not sent any weather packets the latest 10 day(s).
| Time | Temp. | Humidity | Pressure | Rain* | Wind** | Luminosity | Snow |
|---|---|---|---|---|---|---|---|
| 1787961607 | 16.67° C | 96% | 1013.2 hPa | - | - | - | - |
| 1787961333 | 17.22° C | 90% | 1013.4 hPa | - | - | - | - |
| 1787961014 | 17.78° C | 88% | 1013.4 hPa | - | - | - | - |
| 1787960740 | 17.78° C | 88% | 1013.3 hPa | - | - | - | - |
| 1787960420 | 17.78° C | 87% | 1013.4 hPa | - | - | - | - |
| 1787960100 | 17.22° C | 88% | 1013.6 hPa | - | - | - | - |
| 1787959826 | 17.22° C | 92% | 1013.6 hPa | - | - | - | - |
| 1787959509 | 17.22° C | 92% | 1013.8 hPa | - | - | - | - |
| 1787959232 | 17.22° C | 96% | 1013.8 hPa | - | - | - | - |
| 1787958913 | 16.67° C | 98% | 1013.8 hPa | - | - | - | - |
| 1787958639 | 16.67° C | 100% | 1013.9 hPa | - | - | - | - |
| 1787958319 | 16.67° C | 100% | 1014 hPa | - | - | - | - |
| 1787958046 | 17.22° C | 99% | 1014.1 hPa | - | - | - | - |
| 1787957725 | 17.22° C | 95% | 1014.1 hPa | - | - | - | - |
| 1787957406 | 17.22° C | 92% | 1014.1 hPa | - | - | - | - |
| 1787957132 | 17.22° C | 90% | 1014.3 hPa | - | - | - | - |
| 1787956812 | 17.22° C | 88% | 1014.3 hPa | - | - | - | - |
| 1787956539 | 17.78° C | 85% | 1014.4 hPa | - | - | - | - |
| 1787956218 | 17.78° C | 81% | 1014.4 hPa | - | - | - | - |
| 1787955945 | 18.33° C | 77% | 1014.4 hPa | - | - | - | - |
| 1787955625 | 18.89° C | 72% | 1014.5 hPa | - | - | - | - |
| 1787955304 | 19.44° C | 66% | 1014.8 hPa | - | - | - | - |
| 1787955031 | 19.44° C | 65% | 1015 hPa | - | - | - | - |
| 1787954710 | 19.44° C | 64% | 1014.9 hPa | - | - | - | - |
| 1787954437 | 19.44° C | 63% | 1014.8 hPa | - | - | - | - |
* Rain since midnight (hover to see other rain measurements)
** Current wind speed in m/s (hover to see current wind gust speed)